sensor_id;sensor_type;location;lat;lon;timestamp;pressure;altitude;pressure_sealevel;temperature;humidity
13593;BME280;6867;50.998;4.250;2022-10-16T00:01:21;100743.19;;;15.71;74.06
13593;BME280;6867;50.998;4.250;2022-10-16T00:03:48;100741.53;;;15.69;74.11
13593;BME280;6867;50.998;4.250;2022-10-16T00:06:18;100760.75;;;15.68;74.62
13593;BME280;6867;50.998;4.250;2022-10-16T00:08:45;100758.03;;;15.68;74.58
13593;BME280;6867;50.998;4.250;2022-10-16T00:11:14;100758.13;;;15.73;74.49
13593;BME280;6867;50.998;4.250;2022-10-16T00:13:44;100757.06;;;15.74;74.56
13593;BME280;6867;50.998;4.250;2022-10-16T00:16:12;100748.22;;;15.79;74.27
13593;BME280;6867;50.998;4.250;2022-10-16T00:18:40;100757.06;;;15.74;74.31
13593;BME280;6867;50.998;4.250;2022-10-16T00:21:08;100762.38;;;15.69;74.18
13593;BME280;6867;50.998;4.250;2022-10-16T00:23:35;100775.34;;;15.67;74.93
13593;BME280;6867;50.998;4.250;2022-10-16T00:26:04;100773.22;;;15.69;75.14
13593;BME280;6867;50.998;4.250;2022-10-16T00:28:31;100771.25;;;15.64;75.34
13593;BME280;6867;50.998;4.250;2022-10-16T00:31:02;100779.94;;;15.66;75.73
13593;BME280;6867;50.998;4.250;2022-10-16T00:33:29;100772.63;;;15.67;75.70
13593;BME280;6867;50.998;4.250;2022-10-16T00:35:57;100767.69;;;15.64;75.61
13593;BME280;6867;50.998;4.250;2022-10-16T00:38:24;100761.66;;;15.62;75.60
13593;BME280;6867;50.998;4.250;2022-10-16T00:40:52;100763.22;;;15.58;75.98
13593;BME280;6867;50.998;4.250;2022-10-16T00:43:34;100757.81;;;15.58;75.82
13593;BME280;6867;50.998;4.250;2022-10-16T00:46:04;100755.25;;;15.51;75.35
13593;BME280;6867;50.998;4.250;2022-10-16T00:48:31;100754.91;;;15.48;75.51
13593;BME280;6867;50.998;4.250;2022-10-16T00:50:58;100763.16;;;15.41;76.29
13593;BME280;6867;50.998;4.250;2022-10-16T00:53:25;100759.72;;;15.45;76.01
13593;BME280;6867;50.998;4.250;2022-10-16T00:55:53;100771.28;;;15.41;76.08
13593;BME280;6867;50.998;4.250;2022-10-16T00:58:20;100756.66;;;15.42;76.06
13593;BME280;6867;50.998;4.250;2022-10-16T01:00:47;100761.63;;;15.33;76.37
13593;BME280;6867;50.998;4.250;2022-10-16T01:03:30;100767.94;;;15.51;76.63
13593;BME280;6867;50.998;4.250;2022-10-16T01:06:06;100775.50;;;15.49;76.00
13593;BME280;6867;50.998;4.250;2022-10-16T01:08:45;100769.47;;;15.47;76.08
13593;BME280;6867;50.998;4.250;2022-10-16T01:11:22;100768.47;;;15.36;76.47
13593;BME280;6867;50.998;4.250;2022-10-16T01:13:53;100781.03;;;15.42;76.14
13593;BME280;6867;50.998;4.250;2022-10-16T01:16:29;100780.56;;;15.45;76.47
13593;BME280;6867;50.998;4.250;2022-10-16T01:19:04;100782.25;;;15.34;77.02
13593;BME280;6867;50.998;4.250;2022-10-16T01:21:39;100776.72;;;15.29;76.75
13593;BME280;6867;50.998;4.250;2022-10-16T01:24:12;100781.91;;;15.31;77.17
13593;BME280;6867;50.998;4.250;2022-10-16T01:29:50;100779.75;;;15.33;76.67
13593;BME280;6867;50.998;4.250;2022-10-16T01:32:30;100782.38;;;15.28;76.50
13593;BME280;6867;50.998;4.250;2022-10-16T01:35:00;100793.28;;;15.33;77.07
13593;BME280;6867;50.998;4.250;2022-10-16T01:37:34;100783.41;;;15.38;76.68
13593;BME280;6867;50.998;4.250;2022-10-16T01:40:06;100776.72;;;15.29;76.83
13593;BME280;6867;50.998;4.250;2022-10-16T01:42:38;100784.16;;;15.22;76.82
13593;BME280;6867;50.998;4.250;2022-10-16T01:45:08;100778.97;;;15.20;77.04
13593;BME280;6867;50.998;4.250;2022-10-16T01:47:38;100783.69;;;15.13;76.89
13593;BME280;6867;50.998;4.250;2022-10-16T01:50:06;100783.69;;;15.13;77.13
13593;BME280;6867;50.998;4.250;2022-10-16T01:52:36;100775.34;;;15.15;77.18
13593;BME280;6867;50.998;4.250;2022-10-16T01:55:05;100772.75;;;15.08;77.73
13593;BME280;6867;50.998;4.250;2022-10-16T01:57:36;100769.69;;;15.05;78.00
13593;BME280;6867;50.998;4.250;2022-10-16T02:00:09;100778.28;;;15.13;78.17
13593;BME280;6867;50.998;4.250;2022-10-16T02:02:38;100781.09;;;15.07;78.06
13593;BME280;6867;50.998;4.250;2022-10-16T02:05:10;100779.56;;;15.11;77.92
13593;BME280;6867;50.998;4.250;2022-10-16T02:07:39;100776.97;;;15.04;77.85
13593;BME280;6867;50.998;4.250;2022-10-16T02:10:07;100783.81;;;15.07;77.84
13593;BME280;6867;50.998;4.250;2022-10-16T02:12:36;100791.47;;;15.10;78.28
13593;BME280;6867;50.998;4.250;2022-10-16T02:15:05;100788.75;;;15.10;78.08
13593;BME280;6867;50.998;4.250;2022-10-16T02:17:34;100796.53;;;15.06;78.32
13593;BME280;6867;50.998;4.250;2022-10-16T02:20:00;100792.63;;;15.14;78.38
13593;BME280;6867;50.998;4.250;2022-10-16T02:22:30;100787.09;;;15.09;78.87
13593;BME280;6867;50.998;4.250;2022-10-16T02:25:03;100778.75;;;15.22;78.30
13593;BME280;6867;50.998;4.250;2022-10-16T02:27:34;100787.19;;;15.26;78.35
13593;BME280;6867;50.998;4.250;2022-10-16T02:30:07;100790.97;;;15.25;78.45
13593;BME280;6867;50.998;4.250;2022-10-16T02:32:42;100786.63;;;15.24;78.64
13593;BME280;6867;50.998;4.250;2022-10-16T02:35:11;100795.53;;;15.24;78.02
13593;BME280;6867;50.998;4.250;2022-10-16T02:37:39;100790.25;;;15.29;78.41
13593;BME280;6867;50.998;4.250;2022-10-16T02:40:08;100800.03;;;15.30;78.40
13593;BME280;6867;50.998;4.250;2022-10-16T02:42:37;100799.06;;;15.36;78.75
13593;BME280;6867;50.998;4.250;2022-10-16T02:45:05;100804.66;;;15.47;78.29
13593;BME280;6867;50.998;4.250;2022-10-16T02:47:32;100798.69;;;15.44;78.31
13593;BME280;6867;50.998;4.250;2022-10-16T02:50:00;100793.03;;;15.46;77.98
13593;BME280;6867;50.998;4.250;2022-10-16T02:52:27;100804.91;;;15.45;78.39
13593;BME280;6867;50.998;4.250;2022-10-16T02:54:54;100802.22;;;15.45;78.20
13593;BME280;6867;50.998;4.250;2022-10-16T02:57:20;100807.97;;;15.49;78.18
13593;BME280;6867;50.998;4.250;2022-10-16T02:59:47;100817.06;;;15.42;78.52
13593;BME280;6867;50.998;4.250;2022-10-16T03:02:14;100813.63;;;15.47;78.33
13593;BME280;6867;50.998;4.250;2022-10-16T03:04:40;100798.66;;;15.56;78.24
13593;BME280;6867;50.998;4.250;2022-10-16T03:07:08;100799.25;;;15.47;78.26
13593;BME280;6867;50.998;4.250;2022-10-16T03:09:35;100796.81;;;15.45;78.42
13593;BME280;6867;50.998;4.250;2022-10-16T03:12:02;100814.66;;;15.58;78.36
13593;BME280;6867;50.998;4.250;2022-10-16T03:14:29;100821.72;;;15.59;78.20
13593;BME280;6867;50.998;4.250;2022-10-16T03:16:55;100824.47;;;15.47;78.52
13593;BME280;6867;50.998;4.250;2022-10-16T03:19:22;100821.41;;;15.55;78.39
13593;BME280;6867;50.998;4.250;2022-10-16T03:21:49;100828.34;;;15.51;78.89
13593;BME280;6867;50.998;4.250;2022-10-16T03:24:17;100834.22;;;15.48;78.26
13593;BME280;6867;50.998;4.250;2022-10-16T03:26:44;100829.16;;;15.52;78.20
13593;BME280;6867;50.998;4.250;2022-10-16T03:29:10;100836.38;;;15.34;78.73
13593;BME280;6867;50.998;4.250;2022-10-16T03:31:37;100842.38;;;15.36;78.55
13593;BME280;6867;50.998;4.250;2022-10-16T03:34:04;100853.78;;;15.38;78.95
13593;BME280;6867;50.998;4.250;2022-10-16T03:36:30;100854.13;;;15.42;78.68
13593;BME280;6867;50.998;4.250;2022-10-16T03:38:57;100859.66;;;15.35;78.83
13593;BME280;6867;50.998;4.250;2022-10-16T03:41:25;100858.97;;;15.40;79.14
13593;BME280;6867;50.998;4.250;2022-10-16T03:43:52;100850.47;;;15.36;78.95
13593;BME280;6867;50.998;4.250;2022-10-16T03:46:18;100846.84;;;15.42;78.71
13593;BME280;6867;50.998;4.250;2022-10-16T03:48:45;100855.31;;;15.34;78.61
13593;BME280;6867;50.998;4.250;2022-10-16T03:51:12;100861.66;;;15.28;79.17
13593;BME280;6867;50.998;4.250;2022-10-16T03:53:38;100850.59;;;15.30;79.10
13593;BME280;6867;50.998;4.250;2022-10-16T03:56:06;100849.19;;;15.27;79.31
13593;BME280;6867;50.998;4.250;2022-10-16T03:58:34;100855.31;;;15.34;79.14
13593;BME280;6867;50.998;4.250;2022-10-16T04:01:01;100852.00;;;15.32;79.64
13593;BME280;6867;50.998;4.250;2022-10-16T04:03:27;100863.19;;;15.36;79.63
13593;BME280;6867;50.998;4.250;2022-10-16T04:05:54;100861.31;;;15.36;79.36
13593;BME280;6867;50.998;4.250;2022-10-16T04:08:22;100852.81;;;15.44;79.11
13593;BME280;6867;50.998;4.250;2022-10-16T04:10:49;100856.00;;;15.41;78.61
13593;BME280;6867;50.998;4.250;2022-10-16T04:13:15;100859.22;;;15.38;78.72
13593;BME280;6867;50.998;4.250;2022-10-16T04:15:44;100861.41;;;15.30;78.62
13593;BME280;6867;50.998;4.250;2022-10-16T04:18:11;100868.16;;;15.15;78.57
13593;BME280;6867;50.998;4.250;2022-10-16T04:20:38;100878.50;;;15.07;78.74
13593;BME280;6867;50.998;4.250;2022-10-16T04:23:04;100878.16;;;15.15;78.88
13593;BME280;6867;50.998;4.250;2022-10-16T04:25:31;100873.56;;;15.15;78.68
13593;BME280;6867;50.998;4.250;2022-10-16T04:27:58;100886.63;;;15.07;79.27
13593;BME280;6867;50.998;4.250;2022-10-16T04:30:24;100886.38;;;15.08;78.90
13593;BME280;6867;50.998;4.250;2022-10-16T04:32:53;100887.34;;;15.14;78.82
13593;BME280;6867;50.998;4.250;2022-10-16T04:35:20;100887.09;;;15.15;78.99
13593;BME280;6867;50.998;4.250;2022-10-16T04:37:47;100897.09;;;15.15;79.05
13593;BME280;6867;50.998;4.250;2022-10-16T04:40:16;100895.56;;;15.07;78.91
13593;BME280;6867;50.998;4.250;2022-10-16T04:42:43;100904.13;;;15.04;79.37
13593;BME280;6867;50.998;4.250;2022-10-16T04:45:10;100900.03;;;15.02;79.07
13593;BME280;6867;50.998;4.250;2022-10-16T04:47:36;100900.03;;;15.02;78.82
13593;BME280;6867;50.998;4.250;2022-10-16T04:50:05;100906.50;;;15.01;79.14
13593;BME280;6867;50.998;4.250;2022-10-16T04:52:32;100906.00;;;15.04;78.86
13593;BME280;6867;50.998;4.250;2022-10-16T04:54:59;100912.13;;;14.99;78.67
13593;BME280;6867;50.998;4.250;2022-10-16T04:57:28;100906.34;;;14.95;78.72
13593;BME280;6867;50.998;4.250;2022-10-16T04:59:55;100905.66;;;14.88;78.75
13593;BME280;6867;50.998;4.250;2022-10-16T05:02:22;100903.41;;;14.85;79.59
13593;BME280;6867;50.998;4.250;2022-10-16T05:04:48;100914.69;;;14.82;79.67
13593;BME280;6867;50.998;4.250;2022-10-16T05:07:17;100909.19;;;14.89;80.42
13593;BME280;6867;50.998;4.250;2022-10-16T05:09:43;100917.28;;;14.89;80.55
13593;BME280;6867;50.998;4.250;2022-10-16T05:12:10;100925.78;;;14.92;80.03
13593;BME280;6867;50.998;4.250;2022-10-16T05:14:37;100923.16;;;14.86;79.62
13593;BME280;6867;50.998;4.250;2022-10-16T05:17:03;100943.03;;;14.80;80.16
13593;BME280;6867;50.998;4.250;2022-10-16T05:19:30;100943.38;;;14.72;80.32
13593;BME280;6867;50.998;4.250;2022-10-16T05:21:57;100943.56;;;14.70;80.20
13593;BME280;6867;50.998;4.250;2022-10-16T05:24:25;100953.69;;;14.75;80.37
13593;BME280;6867;50.998;4.250;2022-10-16T05:26:52;100961.22;;;14.73;80.58
13593;BME280;6867;50.998;4.250;2022-10-16T05:29:20;100951.34;;;14.78;80.41
13593;BME280;6867;50.998;4.250;2022-10-16T05:31:46;100941.84;;;14.76;80.70
13593;BME280;6867;50.998;4.250;2022-10-16T05:34:16;100950.91;;;14.81;80.94
13593;BME280;6867;50.998;4.250;2022-10-16T05:36:45;100953.25;;;14.78;80.97
13593;BME280;6867;50.998;4.250;2022-10-16T05:39:13;100964.44;;;14.81;80.92
13593;BME280;6867;50.998;4.250;2022-10-16T05:41:41;100957.72;;;14.84;80.33
13593;BME280;6867;50.998;4.250;2022-10-16T05:44:08;100960.19;;;14.85;80.34
13593;BME280;6867;50.998;4.250;2022-10-16T05:46:37;100957.38;;;14.80;79.90
13593;BME280;6867;50.998;4.250;2022-10-16T05:49:04;100968.78;;;14.82;80.42
13593;BME280;6867;50.998;4.250;2022-10-16T05:51:31;100979.03;;;14.92;81.00
13593;BME280;6867;50.998;4.250;2022-10-16T05:53:57;100989.00;;;14.91;80.84
13593;BME280;6867;50.998;4.250;2022-10-16T05:56:24;100997.53;;;15.07;81.11
13593;BME280;6867;50.998;4.250;2022-10-16T05:58:52;100989.94;;;15.27;81.34
13593;BME280;6867;50.998;4.250;2022-10-16T06:01:19;100998.88;;;15.39;80.92
13593;BME280;6867;50.998;4.250;2022-10-16T06:03:50;101003.59;;;15.44;81.11
13593;BME280;6867;50.998;4.250;2022-10-16T06:06:18;101007.72;;;15.58;81.22
13593;BME280;6867;50.998;4.250;2022-10-16T06:08:47;101017.16;;;15.56;81.50
13593;BME280;6867;50.998;4.250;2022-10-16T06:11:15;101029.53;;;15.75;81.39
13593;BME280;6867;50.998;4.250;2022-10-16T06:13:42;101026.59;;;15.77;80.61
13593;BME280;6867;50.998;4.250;2022-10-16T06:16:12;101025.44;;;15.73;80.98
13593;BME280;6867;50.998;4.250;2022-10-16T06:18:39;101027.44;;;15.77;81.07
13593;BME280;6867;50.998;4.250;2022-10-16T06:21:10;101030.84;;;15.73;80.50
13593;BME280;6867;50.998;4.250;2022-10-16T06:23:37;101024.34;;;15.74;80.75
13593;BME280;6867;50.998;4.250;2022-10-16T06:26:05;101028.34;;;15.71;80.60
13593;BME280;6867;50.998;4.250;2022-10-16T06:28:32;101032.47;;;15.74;80.56
13593;BME280;6867;50.998;4.250;2022-10-16T06:30:59;101030.47;;;15.69;80.10
13593;BME280;6867;50.998;4.250;2022-10-16T06:33:27;101031.63;;;15.61;80.55
13593;BME280;6867;50.998;4.250;2022-10-16T06:36:00;101034.25;;;15.68;80.72
13593;BME280;6867;50.998;4.250;2022-10-16T06:38:26;101032.38;;;15.68;80.31
13593;BME280;6867;50.998;4.250;2022-10-16T06:40:53;101044.47;;;15.66;80.72
13593;BME280;6867;50.998;4.250;2022-10-16T06:43:20;101041.78;;;15.66;80.78
13593;BME280;6867;50.998;4.250;2022-10-16T06:45:50;101044.13;;;15.74;80.54
13593;BME280;6867;50.998;4.250;2022-10-16T06:48:17;101047.78;;;15.80;80.24
13593;BME280;6867;50.998;4.250;2022-10-16T06:50:55;101058.50;;;15.86;80.09
13593;BME280;6867;50.998;4.250;2022-10-16T06:53:21;101060.66;;;15.84;79.94
13593;BME280;6867;50.998;4.250;2022-10-16T06:55:48;101066.16;;;15.78;80.36
13593;BME280;6867;50.998;4.250;2022-10-16T06:58:15;101075.59;;;15.87;80.34
13593;BME280;6867;50.998;4.250;2022-10-16T07:00:41;101076.88;;;15.96;79.88
13593;BME280;6867;50.998;4.250;2022-10-16T07:03:08;101072.88;;;15.87;79.78
13593;BME280;6867;50.998;4.250;2022-10-16T07:05:37;101084.78;;;15.86;79.94
13593;BME280;6867;50.998;4.250;2022-10-16T07:08:06;101094.69;;;15.80;79.53
13593;BME280;6867;50.998;4.250;2022-10-16T07:10:33;101103.03;;;15.90;79.55
13593;BME280;6867;50.998;4.250;2022-10-16T07:13:00;101100.56;;;15.89;79.69
13593;BME280;6867;50.998;4.250;2022-10-16T07:15:27;101116.81;;;15.89;79.99
13593;BME280;6867;50.998;4.250;2022-10-16T07:17:53;101125.63;;;15.96;79.81
13593;BME280;6867;50.998;4.250;2022-10-16T07:20:23;101132.72;;;15.97;80.25
13593;BME280;6867;50.998;4.250;2022-10-16T07:22:50;101127.44;;;16.14;79.80
13593;BME280;6867;50.998;4.250;2022-10-16T07:25:18;101136.50;;;16.19;79.59
13593;BME280;6867;50.998;4.250;2022-10-16T07:27:45;101133.69;;;16.26;79.19
13593;BME280;6867;50.998;4.250;2022-10-16T07:30:12;101136.50;;;16.43;78.94
13593;BME280;6867;50.998;4.250;2022-10-16T07:32:38;101146.84;;;16.58;78.88
13593;BME280;6867;50.998;4.250;2022-10-16T07:35:06;101140.84;;;16.56;78.21
13593;BME280;6867;50.998;4.250;2022-10-16T07:37:33;101147.09;;;16.56;78.47
13593;BME280;6867;50.998;4.250;2022-10-16T07:40:00;101153.31;;;16.57;78.19
13593;BME280;6867;50.998;4.250;2022-10-16T07:42:28;101155.34;;;16.73;77.64
13593;BME280;6867;50.998;4.250;2022-10-16T07:44:55;101163.47;;;16.85;77.55
13593;BME280;6867;50.998;4.250;2022-10-16T07:47:22;101159.19;;;16.89;77.33
13593;BME280;6867;50.998;4.250;2022-10-16T07:49:48;101168.63;;;16.98;77.31
13593;BME280;6867;50.998;4.250;2022-10-16T07:52:15;101166.72;;;16.99;77.25
13593;BME280;6867;50.998;4.250;2022-10-16T07:54:42;101157.03;;;17.03;76.46
13593;BME280;6867;50.998;4.250;2022-10-16T07:57:08;101151.59;;;17.03;76.19
13593;BME280;6867;50.998;4.250;2022-10-16T07:59:36;101151.91;;;17.18;75.74
13593;BME280;6867;50.998;4.250;2022-10-16T08:02:03;101152.78;;;17.07;75.12
13593;BME280;6867;50.998;4.250;2022-10-16T08:04:30;101165.72;;;17.16;75.50
13593;BME280;6867;50.998;4.250;2022-10-16T08:06:56;101163.72;;;17.12;75.16
13593;BME280;6867;50.998;4.250;2022-10-16T08:09:23;101157.59;;;17.33;75.07
13593;BME280;6867;50.998;4.250;2022-10-16T08:11:50;101159.06;;;17.53;74.52
13593;BME280;6867;50.998;4.250;2022-10-16T08:14:17;101161.41;;;17.32;74.42
13593;BME280;6867;50.998;4.250;2022-10-16T08:16:46;101157.91;;;17.49;73.91
13593;BME280;6867;50.998;4.250;2022-10-16T08:19:12;101169.97;;;17.41;74.52
13593;BME280;6867;50.998;4.250;2022-10-16T08:21:41;101164.75;;;17.68;73.53
13593;BME280;6867;50.998;4.250;2022-10-16T08:24:08;101146.06;;;17.72;72.77
13593;BME280;6867;50.998;4.250;2022-10-16T08:26:35;101147.78;;;17.89;72.30
13593;BME280;6867;50.998;4.250;2022-10-16T08:29:02;101151.47;;;17.83;71.93
13593;BME280;6867;50.998;4.250;2022-10-16T08:31:28;101170.09;;;17.63;72.73
13593;BME280;6867;50.998;4.250;2022-10-16T08:33:56;101161.75;;;17.81;72.04
13593;BME280;6867;50.998;4.250;2022-10-16T08:36:23;101155.59;;;18.03;71.37
13593;BME280;6867;50.998;4.250;2022-10-16T08:38:50;101168.78;;;18.11;70.93
13593;BME280;6867;50.998;4.250;2022-10-16T08:42:04;101161.34;;;18.06;71.14
13593;BME280;6867;50.998;4.250;2022-10-16T08:44:46;101155.88;;;18.40;70.59
13593;BME280;6867;50.998;4.250;2022-10-16T08:47:23;101160.41;;;18.34;70.08
13593;BME280;6867;50.998;4.250;2022-10-16T08:49:56;101159.66;;;18.39;69.93
13593;BME280;6867;50.998;4.250;2022-10-16T08:52:29;101151.97;;;18.53;69.30
13593;BME280;6867;50.998;4.250;2022-10-16T08:54:56;101167.81;;;18.39;69.84
13593;BME280;6867;50.998;4.250;2022-10-16T08:57:24;101153.50;;;18.65;68.95
13593;BME280;6867;50.998;4.250;2022-10-16T08:59:52;101153.97;;;18.79;68.39
13593;BME280;6867;50.998;4.250;2022-10-16T09:02:24;101161.03;;;18.58;68.34
13593;BME280;6867;50.998;4.250;2022-10-16T09:05:01;101173.03;;;18.79;68.52
13593;BME280;6867;50.998;4.250;2022-10-16T09:07:34;101175.03;;;18.89;68.16
13593;BME280;6867;50.998;4.250;2022-10-16T09:10:14;101166.16;;;18.94;67.58
13593;BME280;6867;50.998;4.250;2022-10-16T09:12:52;101171.25;;;19.12;67.23
13593;BME280;6867;50.998;4.250;2022-10-16T09:15:26;101153.75;;;19.30;66.68
13593;BME280;6867;50.998;4.250;2022-10-16T09:18:00;101154.72;;;19.46;66.35
13593;BME280;6867;50.998;4.250;2022-10-16T09:20:40;101129.22;;;19.03;65.61
13593;BME280;6867;50.998;4.250;2022-10-16T09:23:16;101135.63;;;18.91;65.68
13593;BME280;6867;50.998;4.250;2022-10-16T09:25:47;101153.84;;;19.13;66.11
13593;BME280;6867;50.998;4.250;2022-10-16T09:28:14;101154.69;;;19.19;65.91
13593;BME280;6867;50.998;4.250;2022-10-16T09:30:42;101143.06;;;19.23;65.10
13593;BME280;6867;50.998;4.250;2022-10-16T09:33:10;101175.69;;;19.45;66.24
13593;BME280;6867;50.998;4.250;2022-10-16T09:35:40;101148.66;;;19.38;65.62
13593;BME280;6867;50.998;4.250;2022-10-16T09:38:08;101132.22;;;19.28;65.17
13593;BME280;6867;50.998;4.250;2022-10-16T09:40:37;101151.84;;;19.30;65.77
13593;BME280;6867;50.998;4.250;2022-10-16T09:43:22;101151.41;;;19.44;65.06
13593;BME280;6867;50.998;4.250;2022-10-16T09:45:57;101152.91;;;19.29;65.31
13593;BME280;6867;50.998;4.250;2022-10-16T09:48:27;101141.41;;;19.49;64.60
13593;BME280;6867;50.998;4.250;2022-10-16T09:50:57;101145.66;;;19.62;64.38
13593;BME280;6867;50.998;4.250;2022-10-16T09:53:40;101134.34;;;19.80;63.65
13593;BME280;6867;50.998;4.250;2022-10-16T09:56:10;101159.47;;;19.82;63.79
13593;BME280;6867;50.998;4.250;2022-10-16T09:58:42;101164.44;;;19.90;63.91
13593;BME280;6867;50.998;4.250;2022-10-16T10:01:13;101156.13;;;19.75;63.67
13593;BME280;6867;50.998;4.250;2022-10-16T10:03:42;101204.25;;;19.92;64.55
13593;BME280;6867;50.998;4.250;2022-10-16T10:06:22;101185.22;;;20.02;63.85
13593;BME280;6867;50.998;4.250;2022-10-16T10:08:57;101156.78;;;19.87;62.82
13593;BME280;6867;50.998;4.250;2022-10-16T10:11:55;101156.94;;;20.08;62.85
13593;BME280;6867;50.998;4.250;2022-10-16T10:14:25;101136.28;;;19.85;62.07
13593;BME280;6867;50.998;4.250;2022-10-16T10:17:07;101141.69;;;20.12;61.66
13593;BME280;6867;50.998;4.250;2022-10-16T10:19:38;101153.25;;;19.92;62.41
13593;BME280;6867;50.998;4.250;2022-10-16T10:22:17;101124.91;;;20.35;61.10
13593;BME280;6867;50.998;4.250;2022-10-16T10:24:44;101112.50;;;20.60;59.88
13593;BME280;6867;50.998;4.250;2022-10-16T10:27:14;101104.91;;;20.72;59.58
13593;BME280;6867;50.998;4.250;2022-10-16T10:29:52;101101.69;;;20.85;58.99
13593;BME280;6867;50.998;4.250;2022-10-16T10:32:27;101114.63;;;21.21;58.62
13593;BME280;6867;50.998;4.250;2022-10-16T10:35:11;101125.91;;;21.45;58.75
13593;BME280;6867;50.998;4.250;2022-10-16T10:38:02;101111.69;;;21.73;57.74
13593;BME280;6867;50.998;4.250;2022-10-16T10:40:45;101070.56;;;22.40;55.83
13593;BME280;6867;50.998;4.250;2022-10-16T10:43:26;101035.81;;;22.90;53.80
13593;BME280;6867;50.998;4.250;2022-10-16T10:45:59;101061.06;;;22.81;54.17
13593;BME280;6867;50.998;4.250;2022-10-16T10:48:45;101052.72;;;23.07;53.25
13593;BME280;6867;50.998;4.250;2022-10-16T10:51:22;101020.88;;;23.16;52.56
13593;BME280;6867;50.998;4.250;2022-10-16T10:53:57;101030.19;;;23.20;52.50
13593;BME280;6867;50.998;4.250;2022-10-16T10:56:41;101057.19;;;22.93;53.02
13593;BME280;6867;50.998;4.250;2022-10-16T10:59:24;101055.97;;;23.14;52.83
13593;BME280;6867;50.998;4.250;2022-10-16T11:01:55;101038.44;;;22.60;52.70
13593;BME280;6867;50.998;4.250;2022-10-16T11:04:49;101051.47;;;22.24;53.21
13593;BME280;6867;50.998;4.250;2022-10-16T11:07:25;101045.69;;;22.31;52.81
13593;BME280;6867;50.998;4.250;2022-10-16T11:09:57;101056.38;;;22.27;53.33
13593;BME280;6867;50.998;4.250;2022-10-16T11:12:30;101079.63;;;22.30;53.81
13593;BME280;6867;50.998;4.250;2022-10-16T11:15:02;101082.13;;;22.06;54.21
13593;BME280;6867;50.998;4.250;2022-10-16T11:17:34;101048.50;;;22.00;53.44
13593;BME280;6867;50.998;4.250;2022-10-16T11:20:11;101057.22;;;22.23;53.57
13593;BME280;6867;50.998;4.250;2022-10-16T11:22:40;101023.91;;;21.85;52.99
13593;BME280;6867;50.998;4.250;2022-10-16T11:25:13;101057.03;;;21.63;54.06
13593;BME280;6867;50.998;4.250;2022-10-16T11:27:46;101112.72;;;21.26;55.83
13593;BME280;6867;50.998;4.250;2022-10-16T11:30:18;101134.59;;;21.31;56.55
13593;BME280;6867;50.998;4.250;2022-10-16T11:32:56;101118.25;;;21.72;55.64
13593;BME280;6867;50.998;4.250;2022-10-16T11:35:36;101082.38;;;22.09;54.02
13593;BME280;6867;50.998;4.250;2022-10-16T11:38:10;101126.16;;;22.09;55.29
13593;BME280;6867;50.998;4.250;2022-10-16T11:40:42;101076.81;;;22.50;53.73
13593;BME280;6867;50.998;4.250;2022-10-16T11:43:13;101058.38;;;22.71;53.01
13593;BME280;6867;50.998;4.250;2022-10-16T11:45:45;101047.09;;;22.83;52.31
13593;BME280;6867;50.998;4.250;2022-10-16T11:48:20;101025.72;;;22.85;51.81
13593;BME280;6867;50.998;4.250;2022-10-16T11:50:52;101029.09;;;22.72;51.71
13593;BME280;6867;50.998;4.250;2022-10-16T11:53:25;101025.41;;;22.86;51.68
13593;BME280;6867;50.998;4.250;2022-10-16T11:55:59;100977.34;;;22.65;50.46
13593;BME280;6867;50.998;4.250;2022-10-16T11:58:28;101020.94;;;21.71;52.40
13593;BME280;6867;50.998;4.250;2022-10-16T12:01:02;101050.31;;;22.35;52.38
13593;BME280;6867;50.998;4.250;2022-10-16T12:03:36;100990.53;;;22.63;51.14
13593;BME280;6867;50.998;4.250;2022-10-16T12:06:16;100980.94;;;22.60;50.55
13593;BME280;6867;50.998;4.250;2022-10-16T12:08:50;101033.81;;;22.56;52.10
13593;BME280;6867;50.998;4.250;2022-10-16T12:11:35;100998.78;;;22.58;50.87
13593;BME280;6867;50.998;4.250;2022-10-16T12:14:05;100971.22;;;22.83;49.91
13593;BME280;6867;50.998;4.250;2022-10-16T12:16:36;100965.81;;;22.73;49.67
13593;BME280;6867;50.998;4.250;2022-10-16T12:19:11;101024.00;;;22.45;51.44
13593;BME280;6867;50.998;4.250;2022-10-16T12:21:38;101018.19;;;21.76;52.06
13593;BME280;6867;50.998;4.250;2022-10-16T12:24:05;101039.53;;;21.74;52.38
13593;BME280;6867;50.998;4.250;2022-10-16T12:26:38;101060.03;;;21.61;53.20
13593;BME280;6867;50.998;4.250;2022-10-16T12:29:14;101040.22;;;22.31;51.70
13593;BME280;6867;50.998;4.250;2022-10-16T12:31:47;101001.97;;;22.21;51.15
13593;BME280;6867;50.998;4.250;2022-10-16T12:34:27;101017.94;;;22.58;51.28
13593;BME280;6867;50.998;4.250;2022-10-16T12:36:55;101039.69;;;22.83;51.31
13593;BME280;6867;50.998;4.250;2022-10-16T12:39:24;101008.06;;;22.62;50.83
13593;BME280;6867;50.998;4.250;2022-10-16T12:42:02;101014.19;;;22.93;50.49
13593;BME280;6867;50.998;4.250;2022-10-16T12:44:33;101032.97;;;22.60;51.02
13593;BME280;6867;50.998;4.250;2022-10-16T12:47:01;101035.06;;;22.79;50.82
13593;BME280;6867;50.998;4.250;2022-10-16T12:49:35;101027.19;;;22.67;50.88
13593;BME280;6867;50.998;4.250;2022-10-16T12:52:03;101031.53;;;22.13;51.48
13593;BME280;6867;50.998;4.250;2022-10-16T12:54:31;101045.44;;;22.07;52.09
13593;BME280;6867;50.998;4.250;2022-10-16T12:57:15;101054.50;;;22.18;52.26
13593;BME280;6867;50.998;4.250;2022-10-16T12:59:51;101064.25;;;22.49;51.77
13593;BME280;6867;50.998;4.250;2022-10-16T13:05:41;101039.13;;;23.31;49.88
13593;BME280;6867;50.998;4.250;2022-10-16T13:08:23;101003.56;;;23.55;49.09
13593;BME280;6867;50.998;4.250;2022-10-16T13:10:59;101035.84;;;23.29;49.90
13593;BME280;6867;50.998;4.250;2022-10-16T13:13:43;101003.94;;;23.72;48.39
13593;BME280;6867;50.998;4.250;2022-10-16T13:16:21;100987.75;;;24.00;48.24
13593;BME280;6867;50.998;4.250;2022-10-16T13:18:58;100946.47;;;23.86;47.48
13593;BME280;6867;50.998;4.250;2022-10-16T13:21:36;100983.56;;;23.83;48.00
13593;BME280;6867;50.998;4.250;2022-10-16T13:24:14;101001.94;;;23.54;48.79